createdAt,value
2019-03-20T00:03:28.930Z,79.54
2019-03-20T00:08:23.265Z,79.35
2019-03-20T00:13:17.330Z,79.41
2019-03-20T00:18:11.303Z,79.35
2019-03-20T00:23:05.260Z,78.92
2019-03-20T00:27:59.225Z,78.79
2019-03-20T00:32:53.257Z,78.59
2019-03-20T00:37:47.222Z,78.75
2019-03-20T00:42:41.422Z,78.82
2019-03-20T00:47:35.375Z,78.55
2019-03-20T00:52:29.436Z,78.65
2019-03-20T00:57:23.407Z,78.97
2019-03-20T01:02:17.480Z,79.09
2019-03-20T01:07:11.551Z,78.96
2019-03-20T01:12:05.552Z,78.46
2019-03-20T01:16:59.510Z,78.08
2019-03-20T01:21:53.573Z,77.76
2019-03-20T01:26:47.533Z,77.67
2019-03-20T01:31:41.638Z,77.64
2019-03-20T01:36:35.744Z,77.67
2019-03-20T01:41:37.584Z,77.93
2019-03-20T01:46:25.653Z,78.43
2019-03-20T01:51:20.518Z,78.32
2019-03-20T01:56:14.486Z,78.05
2019-03-20T02:01:08.544Z,78.33
2019-03-20T02:06:02.632Z,78.51
2019-03-20T02:10:56.589Z,78.61
2019-03-20T02:15:50.559Z,78.89
2019-03-20T02:20:44.668Z,78.91
2019-03-20T02:25:38.718Z,79.00
2019-03-20T02:30:32.709Z,79.05
2019-03-20T02:35:26.769Z,79.14
2019-03-20T02:40:20.707Z,79.28
2019-03-20T02:45:15.582Z,78.95
2019-03-20T02:50:10.763Z,78.79
2019-03-20T02:55:07.008Z,78.26
2019-03-20T03:00:01.565Z,78.15
2019-03-20T03:04:56.555Z,78.16
2019-03-20T03:09:50.556Z,78.23
2019-03-20T03:14:44.680Z,78.06
2019-03-20T03:19:38.653Z,77.60
2019-03-20T03:24:32.632Z,77.61
2019-03-20T03:29:26.577Z,77.65
2019-03-20T03:34:20.612Z,77.94
2019-03-20T03:39:14.588Z,77.93
2019-03-20T03:44:08.551Z,78.11
2019-03-20T03:49:02.709Z,77.93
2019-03-20T03:53:56.670Z,78.09
2019-03-20T03:58:50.621Z,78.19
2019-03-20T04:03:44.624Z,78.24
2019-03-20T04:08:39.077Z,78.54
2019-03-20T04:13:33.025Z,78.70
2019-03-20T04:18:27.000Z,78.54
2019-03-20T04:23:20.968Z,78.26
2019-03-20T04:28:15.019Z,78.17
2019-03-20T04:33:08.962Z,78.36
2019-03-20T04:38:02.936Z,78.51
2019-03-20T04:42:56.886Z,78.53
2019-03-20T04:47:50.928Z,78.38
2019-03-20T04:52:44.976Z,78.09
2019-03-20T04:57:39.119Z,78.14
2019-03-20T05:02:33.088Z,78.02
2019-03-20T05:07:27.034Z,77.80
2019-03-20T05:12:20.985Z,77.39
2019-03-20T05:17:14.948Z,77.39
2019-03-20T05:22:08.912Z,77.32
2019-03-20T05:27:03.167Z,77.23
2019-03-20T05:31:57.169Z,77.05
2019-03-20T05:36:51.149Z,76.67
2019-03-20T05:41:45.142Z,76.72
2019-03-20T05:46:39.112Z,76.36
2019-03-20T05:51:33.200Z,75.87
2019-03-20T05:56:27.215Z,75.04
2019-03-20T06:01:21.203Z,74.22
2019-03-20T06:06:15.160Z,73.96
2019-03-20T06:11:09.201Z,73.43
2019-03-20T06:16:03.166Z,72.82
2019-03-20T06:20:57.169Z,72.00
2019-03-20T06:25:51.655Z,71.18
2019-03-20T06:30:45.783Z,69.83
2019-03-20T06:35:39.789Z,68.08
2019-03-20T06:40:33.765Z,67.58
2019-03-20T06:45:27.775Z,66.56
2019-03-20T06:50:22.147Z,66.23
2019-03-20T06:55:16.092Z,66.08
2019-03-20T07:00:36.764Z,64.29
2019-03-20T07:05:51.347Z,64.29
2019-03-20T07:10:54.495Z,64.09
2019-03-20T07:15:50.393Z,63.22
2019-03-20T07:20:44.371Z,63.45
2019-03-20T07:25:38.504Z,62.68
2019-03-20T07:30:32.463Z,62.07
2019-03-20T07:35:26.447Z,61.75
2019-03-20T07:40:20.427Z,61.39
2019-03-20T07:45:14.427Z,61.37
2019-03-20T07:50:09.289Z,61.31
2019-03-20T07:55:03.655Z,60.23
2019-03-20T07:59:57.620Z,59.28
2019-03-20T08:04:51.880Z,58.94
2019-03-20T08:09:45.832Z,58.53
2019-03-20T08:14:39.819Z,58.06
2019-03-20T08:19:35.729Z,57.08
2019-03-20T08:24:29.768Z,56.46
2019-03-20T08:29:23.773Z,53.91
2019-03-20T08:34:17.758Z,54.53
2019-03-20T08:39:11.736Z,54.87
2019-03-20T08:44:05.705Z,53.75
2019-03-20T08:48:59.667Z,53.86
2019-03-20T08:53:56.183Z,53.59
2019-03-20T08:58:49.547Z,53.12
2019-03-20T09:03:43.504Z,52.04
2019-03-20T09:08:37.486Z,51.98
2019-03-20T09:13:33.382Z,51.69
2019-03-20T09:18:27.467Z,49.81
2019-03-20T09:23:21.443Z,48.76
2019-03-20T09:28:15.419Z,47.65
2019-03-20T09:33:09.459Z,47.31
2019-03-20T09:38:03.519Z,47.45
2019-03-20T09:42:57.510Z,46.71
2019-03-20T09:47:51.492Z,46.90
2019-03-20T09:52:45.570Z,46.83
2019-03-20T09:57:39.747Z,45.59
2019-03-20T10:02:33.698Z,43.59
2019-03-20T10:07:27.787Z,43.54
2019-03-20T10:12:21.984Z,43.38
2019-03-20T10:17:17.328Z,41.65
2019-03-20T10:22:11.487Z,41.66
2019-03-20T10:27:05.596Z,41.99
2019-03-20T10:31:59.585Z,42.15
2019-03-20T10:36:53.672Z,38.81
2019-03-20T10:41:47.665Z,36.80
2019-03-20T10:46:41.834Z,35.94
2019-03-20T10:51:35.818Z,35.84
2019-03-20T10:56:29.793Z,36.52
2019-03-20T11:01:23.777Z,35.60
2019-03-20T11:06:17.952Z,33.38
2019-03-20T11:11:11.916Z,34.04
2019-03-20T11:16:05.861Z,33.24
2019-03-20T11:20:59.973Z,32.77
2019-03-20T11:25:54.005Z,31.74
2019-03-20T11:30:47.993Z,31.24
2019-03-20T11:35:42.594Z,31.95
2019-03-20T11:40:37.800Z,29.86
2019-03-20T11:45:31.977Z,29.53
2019-03-20T11:50:37.147Z,25.76
2019-03-20T11:55:31.130Z,25.49
2019-03-20T12:00:25.601Z,25.93
2019-03-20T12:05:19.792Z,28.81
2019-03-20T12:10:23.417Z,31.02
2019-03-20T12:15:17.647Z,32.43
2019-03-20T12:20:17.216Z,32.88
2019-03-20T12:25:17.108Z,28.38
2019-03-20T12:30:14.006Z,28.64
2019-03-20T12:35:10.929Z,30.08
2019-03-20T12:40:14.527Z,33.52
2019-03-20T12:45:12.249Z,32.72
2019-03-20T12:50:10.239Z,30.46
2019-03-20T12:55:07.760Z,28.77
2019-03-20T13:00:05.579Z,29.44
2019-03-20T13:04:59.780Z,31.18
2019-03-20T13:09:56.166Z,32.15
2019-03-20T13:14:49.665Z,34.27
2019-03-20T13:19:43.862Z,35.34
2019-03-20T13:24:37.838Z,36.00
2019-03-20T13:29:31.824Z,34.66
2019-03-20T13:34:25.837Z,32.09
2019-03-20T13:39:19.836Z,29.92
2019-03-20T13:44:13.806Z,28.55
2019-03-20T13:49:07.785Z,29.04
2019-03-20T13:54:01.820Z,30.66
2019-03-20T13:58:55.797Z,32.21
2019-03-20T14:03:49.894Z,33.92
2019-03-20T14:08:43.868Z,32.05
2019-03-20T14:13:37.847Z,31.08
2019-03-20T14:18:31.845Z,32.15
2019-03-20T14:23:26.007Z,33.61
2019-03-20T14:28:20.165Z,34.67
2019-03-20T14:33:14.214Z,35.64
2019-03-20T14:38:08.199Z,36.86
2019-03-20T14:43:02.337Z,37.06
2019-03-20T14:47:56.541Z,38.49
2019-03-20T14:52:50.734Z,39.25
2019-03-20T14:57:44.819Z,38.82
2019-03-20T15:02:38.920Z,39.61
2019-03-20T15:07:32.890Z,38.90
2019-03-20T15:12:26.989Z,38.48
2019-03-20T15:17:20.980Z,39.70
2019-03-20T15:22:15.046Z,39.28
2019-03-20T15:27:09.021Z,39.77
2019-03-20T15:32:03.454Z,39.95
2019-03-20T15:36:57.466Z,39.84
2019-03-20T15:41:51.454Z,39.96
2019-03-20T15:46:45.441Z,40.09
2019-03-20T15:51:39.436Z,39.85
2019-03-20T15:56:33.401Z,39.66
2019-03-20T16:01:27.432Z,40.73
2019-03-20T16:06:21.642Z,41.88
2019-03-20T16:11:15.725Z,43.54
2019-03-20T16:16:09.843Z,43.26
2019-03-20T16:21:03.847Z,43.37
2019-03-20T16:25:57.852Z,43.56
2019-03-20T16:30:51.836Z,41.11
2019-03-20T16:35:45.846Z,37.84
2019-03-20T16:40:39.828Z,36.04
2019-03-20T16:45:36.123Z,40.02
2019-03-20T16:50:30.093Z,42.34
2019-03-20T16:55:24.207Z,43.51
2019-03-20T17:00:20.210Z,44.24
2019-03-20T17:05:14.469Z,44.59
2019-03-20T17:10:15.217Z,45.24
2019-03-20T17:15:12.993Z,45.85
2019-03-20T17:20:07.276Z,46.83
2019-03-20T17:25:01.393Z,47.09
2019-03-20T17:29:55.358Z,48.05
2019-03-20T17:34:49.429Z,49.03
2019-03-20T17:39:43.428Z,50.30
2019-03-20T17:44:37.405Z,51.60
2019-03-20T17:49:31.369Z,53.62
2019-03-20T17:54:25.459Z,54.93
2019-03-20T17:59:19.496Z,56.28
2019-03-20T18:04:13.973Z,56.99
2019-03-20T18:09:08.170Z,58.76
2019-03-20T18:14:02.201Z,59.83
2019-03-20T18:18:56.297Z,61.05
2019-03-20T18:23:50.604Z,61.96
2019-03-20T18:28:44.728Z,63.10
2019-03-20T18:33:38.804Z,64.64
2019-03-20T18:38:32.951Z,65.42
2019-03-20T18:43:26.953Z,66.76
2019-03-20T18:48:20.990Z,67.14
2019-03-20T18:53:15.090Z,67.34
2019-03-20T18:58:09.284Z,67.39
2019-03-20T19:03:19.017Z,67.15
2019-03-20T19:08:13.185Z,66.91
2019-03-20T19:13:07.496Z,66.95
2019-03-20T19:18:01.634Z,67.06
2019-03-20T19:22:55.943Z,66.86
2019-03-20T19:27:49.987Z,67.06
2019-03-20T19:32:43.990Z,67.96
2019-03-20T19:37:38.262Z,68.42
2019-03-20T19:42:32.249Z,69.11
2019-03-20T19:47:26.451Z,69.55
2019-03-20T19:52:20.830Z,70.05
2019-03-20T19:57:15.109Z,70.40
2019-03-20T20:02:09.468Z,70.73
2019-03-20T20:07:03.571Z,71.47
2019-03-20T20:11:57.664Z,72.33
2019-03-20T20:16:51.745Z,72.83
2019-03-20T20:21:45.857Z,73.70
2019-03-20T20:26:40.010Z,74.06
2019-03-20T20:31:34.130Z,74.44
2019-03-20T20:36:28.241Z,74.94
2019-03-20T20:41:22.491Z,75.32
2019-03-20T20:46:16.589Z,75.88
2019-03-20T20:51:10.576Z,76.11
2019-03-20T20:56:04.592Z,76.50
2019-03-20T21:00:59.006Z,77.03
2019-03-20T21:05:53.024Z,77.38
2019-03-20T21:10:47.043Z,77.55
2019-03-20T21:15:43.431Z,77.89
2019-03-20T21:20:37.436Z,78.36
2019-03-20T21:25:31.412Z,78.64
2019-03-20T21:30:38.205Z,79.05
2019-03-20T21:36:08.533Z,79.33
2019-03-20T21:41:09.062Z,79.58
2019-03-20T21:46:33.087Z,79.98
2019-03-20T21:51:27.281Z,80.19
2019-03-20T21:56:31.136Z,80.60
2019-03-20T22:01:46.826Z,80.99
2019-03-20T22:07:06.594Z,81.39
2019-03-20T22:12:16.689Z,81.42
2019-03-20T22:17:26.470Z,81.64
2019-03-20T22:22:33.195Z,81.97
2019-03-20T22:27:36.903Z,82.20
2019-03-20T22:33:07.921Z,82.49
2019-03-20T22:38:05.429Z,82.83
2019-03-20T22:43:29.470Z,83.04
2019-03-20T22:48:38.024Z,83.26
2019-03-20T22:53:41.625Z,83.27
2019-03-20T22:58:42.159Z,83.29
2019-03-20T23:04:00.054Z,83.66
2019-03-20T23:08:54.021Z,83.80
2019-03-20T23:13:48.714Z,83.92
2019-03-20T23:18:42.686Z,83.85
2019-03-20T23:23:37.487Z,83.95
2019-03-20T23:28:31.459Z,84.22
2019-03-20T23:33:25.459Z,84.52
2019-03-20T23:38:19.438Z,84.53
2019-03-20T23:43:13.409Z,84.60
2019-03-20T23:48:19.600Z,84.72
2019-03-20T23:53:13.522Z,84.97
2019-03-20T23:58:07.490Z,85.13
